sensor_id;sensor_type;location;lat;lon;timestamp;P1;durP1;ratioP1;P2;durP2;ratioP2
27704;SDS011;15109;50.992;6.918;2022-08-19T00:02:00;4.65;;;2.75;;
27704;SDS011;15109;50.992;6.918;2022-08-19T00:05:21;3.70;;;1.95;;
27704;SDS011;15109;50.992;6.918;2022-08-19T00:08:43;2.97;;;2.05;;
27704;SDS011;15109;50.992;6.918;2022-08-19T00:12:05;3.97;;;2.33;;
27704;SDS011;15109;50.992;6.918;2022-08-19T00:15:26;3.38;;;2.13;;
27704;SDS011;15109;50.992;6.918;2022-08-19T00:18:48;2.75;;;1.98;;
27704;SDS011;15109;50.992;6.918;2022-08-19T00:22:09;4.43;;;2.67;;
27704;SDS011;15109;50.992;6.918;2022-08-19T00:25:30;2.75;;;2.00;;
27704;SDS011;15109;50.992;6.918;2022-08-19T00:28:51;2.92;;;2.15;;
27704;SDS011;15109;50.992;6.918;2022-08-19T00:32:12;3.42;;;2.15;;
27704;SDS011;15109;50.992;6.918;2022-08-19T00:35:33;3.85;;;2.10;;
27704;SDS011;15109;50.992;6.918;2022-08-19T00:38:54;3.60;;;2.40;;
27704;SDS011;15109;50.992;6.918;2022-08-19T00:42:16;3.88;;;2.15;;
27704;SDS011;15109;50.992;6.918;2022-08-19T00:45:39;5.00;;;2.00;;
27704;SDS011;15109;50.992;6.918;2022-08-19T00:49:04;4.28;;;2.67;;
27704;SDS011;15109;50.992;6.918;2022-08-19T00:52:32;4.22;;;2.50;;
27704;SDS011;15109;50.992;6.918;2022-08-19T00:55:56;2.53;;;1.80;;
27704;SDS011;15109;50.992;6.918;2022-08-19T00:59:20;3.88;;;2.25;;
27704;SDS011;15109;50.992;6.918;2022-08-19T01:02:41;3.90;;;2.38;;
27704;SDS011;15109;50.992;6.918;2022-08-19T01:06:03;3.65;;;2.33;;
27704;SDS011;15109;50.992;6.918;2022-08-19T01:09:26;3.30;;;2.35;;
27704;SDS011;15109;50.992;6.918;2022-08-19T01:12:47;12.57;;;2.80;;
27704;SDS011;15109;50.992;6.918;2022-08-19T01:16:10;3.05;;;2.00;;
27704;SDS011;15109;50.992;6.918;2022-08-19T01:19:37;3.85;;;2.15;;
27704;SDS011;15109;50.992;6.918;2022-08-19T01:23:00;3.05;;;2.05;;
27704;SDS011;15109;50.992;6.918;2022-08-19T01:26:23;3.05;;;2.17;;
27704;SDS011;15109;50.992;6.918;2022-08-19T01:29:45;3.92;;;2.60;;
27704;SDS011;15109;50.992;6.918;2022-08-19T01:33:07;5.40;;;2.45;;
27704;SDS011;15109;50.992;6.918;2022-08-19T01:36:30;3.25;;;2.28;;
27704;SDS011;15109;50.992;6.918;2022-08-19T01:39:59;4.10;;;2.70;;
27704;SDS011;15109;50.992;6.918;2022-08-19T01:43:20;4.80;;;3.08;;
27704;SDS011;15109;50.992;6.918;2022-08-19T01:46:42;3.97;;;2.53;;
27704;SDS011;15109;50.992;6.918;2022-08-19T01:50:04;3.38;;;2.33;;
27704;SDS011;15109;50.992;6.918;2022-08-19T01:53:28;4.88;;;3.30;;
27704;SDS011;15109;50.992;6.918;2022-08-19T01:56:50;4.13;;;2.60;;
27704;SDS011;15109;50.992;6.918;2022-08-19T02:00:14;2.97;;;1.98;;
27704;SDS011;15109;50.992;6.918;2022-08-19T02:03:38;3.70;;;2.50;;
27704;SDS011;15109;50.992;6.918;2022-08-19T02:07:00;3.42;;;2.10;;
27704;SDS011;15109;50.992;6.918;2022-08-19T02:10:21;5.60;;;2.80;;
27704;SDS011;15109;50.992;6.918;2022-08-19T02:13:43;4.05;;;2.53;;
27704;SDS011;15109;50.992;6.918;2022-08-19T02:17:04;5.38;;;3.33;;
27704;SDS011;15109;50.992;6.918;2022-08-19T02:20:25;2.50;;;2.03;;
27704;SDS011;15109;50.992;6.918;2022-08-19T02:23:46;5.80;;;3.00;;
27704;SDS011;15109;50.992;6.918;2022-08-19T02:27:08;4.25;;;2.50;;
27704;SDS011;15109;50.992;6.918;2022-08-19T02:30:29;4.68;;;2.83;;
27704;SDS011;15109;50.992;6.918;2022-08-19T02:33:50;4.95;;;2.67;;
27704;SDS011;15109;50.992;6.918;2022-08-19T02:37:13;5.25;;;3.00;;
27704;SDS011;15109;50.992;6.918;2022-08-19T02:40:57;3.58;;;2.08;;
27704;SDS011;15109;50.992;6.918;2022-08-19T02:44:20;4.72;;;2.55;;
27704;SDS011;15109;50.992;6.918;2022-08-19T02:47:42;3.90;;;2.50;;
27704;SDS011;15109;50.992;6.918;2022-08-19T02:51:03;4.65;;;2.83;;
27704;SDS011;15109;50.992;6.918;2022-08-19T02:54:25;4.22;;;2.42;;
27704;SDS011;15109;50.992;6.918;2022-08-19T02:57:47;5.03;;;2.90;;
27704;SDS011;15109;50.992;6.918;2022-08-19T03:01:08;5.50;;;3.08;;
27704;SDS011;15109;50.992;6.918;2022-08-19T03:04:31;4.40;;;2.92;;
27704;SDS011;15109;50.992;6.918;2022-08-19T03:07:52;5.60;;;2.92;;
27704;SDS011;15109;50.992;6.918;2022-08-19T03:11:22;4.93;;;2.85;;
27704;SDS011;15109;50.992;6.918;2022-08-19T03:14:44;3.50;;;2.50;;
27704;SDS011;15109;50.992;6.918;2022-08-19T03:18:07;3.75;;;2.58;;
27704;SDS011;15109;50.992;6.918;2022-08-19T03:21:29;6.15;;;3.08;;
27704;SDS011;15109;50.992;6.918;2022-08-19T03:24:52;3.35;;;2.40;;
27704;SDS011;15109;50.992;6.918;2022-08-19T03:28:14;4.03;;;2.83;;
27704;SDS011;15109;50.992;6.918;2022-08-19T03:31:35;5.35;;;3.35;;
27704;SDS011;15109;50.992;6.918;2022-08-19T03:34:57;4.90;;;2.95;;
27704;SDS011;15109;50.992;6.918;2022-08-19T03:38:18;5.68;;;3.30;;
27704;SDS011;15109;50.992;6.918;2022-08-19T03:41:40;5.15;;;3.33;;
27704;SDS011;15109;50.992;6.918;2022-08-19T03:45:03;5.60;;;3.45;;
27704;SDS011;15109;50.992;6.918;2022-08-19T03:48:25;4.93;;;3.03;;
27704;SDS011;15109;50.992;6.918;2022-08-19T03:51:47;5.18;;;3.05;;
27704;SDS011;15109;50.992;6.918;2022-08-19T03:55:09;6.40;;;2.83;;
27704;SDS011;15109;50.992;6.918;2022-08-19T03:58:30;4.55;;;3.10;;
27704;SDS011;15109;50.992;6.918;2022-08-19T04:01:55;4.70;;;2.95;;
27704;SDS011;15109;50.992;6.918;2022-08-19T04:05:17;15.57;;;6.75;;
27704;SDS011;15109;50.992;6.918;2022-08-19T04:08:42;11.48;;;7.35;;
27704;SDS011;15109;50.992;6.918;2022-08-19T04:12:04;8.93;;;5.70;;
27704;SDS011;15109;50.992;6.918;2022-08-19T04:15:26;10.45;;;6.68;;
27704;SDS011;15109;50.992;6.918;2022-08-19T04:18:49;10.25;;;6.85;;
27704;SDS011;15109;50.992;6.918;2022-08-19T04:22:10;11.23;;;7.20;;
27704;SDS011;15109;50.992;6.918;2022-08-19T04:25:36;10.98;;;7.47;;
27704;SDS011;15109;50.992;6.918;2022-08-19T04:29:02;14.07;;;7.30;;
27704;SDS011;15109;50.992;6.918;2022-08-19T04:32:25;10.15;;;6.47;;
27704;SDS011;15109;50.992;6.918;2022-08-19T04:35:47;14.05;;;7.43;;
27704;SDS011;15109;50.992;6.918;2022-08-19T04:39:16;11.15;;;8.07;;
27704;SDS011;15109;50.992;6.918;2022-08-19T04:42:39;14.52;;;8.65;;
27704;SDS011;15109;50.992;6.918;2022-08-19T04:46:07;12.43;;;8.05;;
27704;SDS011;15109;50.992;6.918;2022-08-19T04:49:31;11.40;;;8.00;;
27704;SDS011;15109;50.992;6.918;2022-08-19T04:52:52;11.88;;;8.60;;
27704;SDS011;15109;50.992;6.918;2022-08-19T04:56:14;11.82;;;8.27;;
27704;SDS011;15109;50.992;6.918;2022-08-19T04:59:38;9.15;;;6.85;;
27704;SDS011;15109;50.992;6.918;2022-08-19T05:03:00;13.20;;;8.27;;
27704;SDS011;15109;50.992;6.918;2022-08-19T05:06:22;8.75;;;6.25;;
27704;SDS011;15109;50.992;6.918;2022-08-19T05:09:44;9.95;;;6.43;;
27704;SDS011;15109;50.992;6.918;2022-08-19T05:13:05;11.48;;;6.65;;
27704;SDS011;15109;50.992;6.918;2022-08-19T05:16:26;10.80;;;6.68;;
27704;SDS011;15109;50.992;6.918;2022-08-19T05:19:48;9.80;;;7.22;;
27704;SDS011;15109;50.992;6.918;2022-08-19T05:23:27;11.80;;;8.55;;
27704;SDS011;15109;50.992;6.918;2022-08-19T05:26:49;16.45;;;8.20;;
27704;SDS011;15109;50.992;6.918;2022-08-19T05:30:11;12.82;;;8.32;;
27704;SDS011;15109;50.992;6.918;2022-08-19T05:33:33;19.90;;;10.20;;
27704;SDS011;15109;50.992;6.918;2022-08-19T05:36:55;13.98;;;8.48;;
27704;SDS011;15109;50.992;6.918;2022-08-19T05:40:18;15.00;;;9.30;;
27704;SDS011;15109;50.992;6.918;2022-08-19T05:43:39;13.70;;;9.88;;
27704;SDS011;15109;50.992;6.918;2022-08-19T05:47:01;19.10;;;10.88;;
27704;SDS011;15109;50.992;6.918;2022-08-19T05:50:23;16.10;;;11.35;;
27704;SDS011;15109;50.992;6.918;2022-08-19T05:53:46;13.52;;;9.98;;
27704;SDS011;15109;50.992;6.918;2022-08-19T05:57:08;14.63;;;10.00;;
27704;SDS011;15109;50.992;6.918;2022-08-19T06:00:30;15.20;;;10.38;;
27704;SDS011;15109;50.992;6.918;2022-08-19T06:03:51;17.85;;;10.70;;
27704;SDS011;15109;50.992;6.918;2022-08-19T06:07:13;15.98;;;10.63;;
27704;SDS011;15109;50.992;6.918;2022-08-19T06:10:34;14.40;;;9.95;;
27704;SDS011;15109;50.992;6.918;2022-08-19T06:13:56;16.73;;;11.30;;
27704;SDS011;15109;50.992;6.918;2022-08-19T06:17:18;14.02;;;10.30;;
27704;SDS011;15109;50.992;6.918;2022-08-19T06:20:39;14.38;;;10.27;;
27704;SDS011;15109;50.992;6.918;2022-08-19T06:24:01;13.88;;;9.13;;
27704;SDS011;15109;50.992;6.918;2022-08-19T06:27:23;13.18;;;9.73;;
27704;SDS011;15109;50.992;6.918;2022-08-19T06:30:44;10.00;;;7.15;;
27704;SDS011;15109;50.992;6.918;2022-08-19T06:34:05;14.27;;;9.70;;
27704;SDS011;15109;50.992;6.918;2022-08-19T06:37:26;12.50;;;8.43;;
27704;SDS011;15109;50.992;6.918;2022-08-19T06:40:47;11.75;;;8.63;;
27704;SDS011;15109;50.992;6.918;2022-08-19T06:44:08;13.65;;;9.82;;
27704;SDS011;15109;50.992;6.918;2022-08-19T06:47:31;15.20;;;10.15;;
27704;SDS011;15109;50.992;6.918;2022-08-19T06:50:55;16.48;;;11.05;;
27704;SDS011;15109;50.992;6.918;2022-08-19T06:54:16;13.00;;;8.85;;
27704;SDS011;15109;50.992;6.918;2022-08-19T06:57:39;15.18;;;9.73;;
27704;SDS011;15109;50.992;6.918;2022-08-19T07:01:04;13.73;;;8.50;;
27704;SDS011;15109;50.992;6.918;2022-08-19T07:04:28;11.95;;;8.20;;
27704;SDS011;15109;50.992;6.918;2022-08-19T07:07:52;16.48;;;9.82;;
27704;SDS011;15109;50.992;6.918;2022-08-19T07:11:14;14.40;;;8.68;;
27704;SDS011;15109;50.992;6.918;2022-08-19T07:14:38;13.05;;;8.55;;
27704;SDS011;15109;50.992;6.918;2022-08-19T07:18:03;11.82;;;8.40;;
27704;SDS011;15109;50.992;6.918;2022-08-19T07:21:26;16.67;;;10.02;;
27704;SDS011;15109;50.992;6.918;2022-08-19T07:24:48;11.93;;;7.78;;
27704;SDS011;15109;50.992;6.918;2022-08-19T07:28:10;12.35;;;8.48;;
27704;SDS011;15109;50.992;6.918;2022-08-19T07:31:31;12.25;;;8.63;;
27704;SDS011;15109;50.992;6.918;2022-08-19T07:34:56;13.63;;;8.85;;
27704;SDS011;15109;50.992;6.918;2022-08-19T07:38:18;15.40;;;10.05;;
27704;SDS011;15109;50.992;6.918;2022-08-19T07:41:39;15.43;;;9.43;;
27704;SDS011;15109;50.992;6.918;2022-08-19T07:45:03;13.25;;;9.23;;
27704;SDS011;15109;50.992;6.918;2022-08-19T07:48:27;15.88;;;10.57;;
27704;SDS011;15109;50.992;6.918;2022-08-19T07:51:50;18.77;;;9.60;;
27704;SDS011;15109;50.992;6.918;2022-08-19T07:55:18;16.73;;;9.85;;
27704;SDS011;15109;50.992;6.918;2022-08-19T07:58:42;15.07;;;9.73;;
27704;SDS011;15109;50.992;6.918;2022-08-19T08:02:04;17.33;;;11.15;;
27704;SDS011;15109;50.992;6.918;2022-08-19T08:05:26;18.88;;;11.15;;
27704;SDS011;15109;50.992;6.918;2022-08-19T08:09:06;15.63;;;9.68;;
27704;SDS011;15109;50.992;6.918;2022-08-19T08:12:41;16.27;;;10.88;;
27704;SDS011;15109;50.992;6.918;2022-08-19T08:16:02;19.98;;;11.52;;
27704;SDS011;15109;50.992;6.918;2022-08-19T08:19:24;15.38;;;10.85;;
27704;SDS011;15109;50.992;6.918;2022-08-19T08:22:47;18.25;;;12.10;;
27704;SDS011;15109;50.992;6.918;2022-08-19T08:26:30;18.45;;;12.40;;
27704;SDS011;15109;50.992;6.918;2022-08-19T08:29:51;21.45;;;13.77;;
27704;SDS011;15109;50.992;6.918;2022-08-19T08:33:13;21.52;;;12.85;;
27704;SDS011;15109;50.992;6.918;2022-08-19T08:36:39;18.40;;;11.30;;
27704;SDS011;15109;50.992;6.918;2022-08-19T08:40:07;14.88;;;10.45;;
27704;SDS011;15109;50.992;6.918;2022-08-19T08:43:37;19.98;;;11.63;;
27704;SDS011;15109;50.992;6.918;2022-08-19T08:47:04;19.60;;;11.48;;
27704;SDS011;15109;50.992;6.918;2022-08-19T08:50:35;20.33;;;11.73;;
27704;SDS011;15109;50.992;6.918;2022-08-19T08:54:04;20.05;;;12.00;;
27704;SDS011;15109;50.992;6.918;2022-08-19T08:57:32;23.17;;;12.20;;
27704;SDS011;15109;50.992;6.918;2022-08-19T09:00:58;22.02;;;10.75;;
27704;SDS011;15109;50.992;6.918;2022-08-19T09:04:20;14.88;;;9.35;;
27704;SDS011;15109;50.992;6.918;2022-08-19T09:07:47;16.70;;;11.48;;
27704;SDS011;15109;50.992;6.918;2022-08-19T09:11:15;15.27;;;10.40;;
27704;SDS011;15109;50.992;6.918;2022-08-19T09:14:49;16.83;;;9.95;;
27704;SDS011;15109;50.992;6.918;2022-08-19T09:18:15;16.55;;;8.90;;
27704;SDS011;15109;50.992;6.918;2022-08-19T09:21:37;16.98;;;10.15;;
27704;SDS011;15109;50.992;6.918;2022-08-19T09:24:59;11.80;;;7.75;;
27704;SDS011;15109;50.992;6.918;2022-08-19T09:28:20;13.13;;;8.95;;
27704;SDS011;15109;50.992;6.918;2022-08-19T09:31:41;12.95;;;7.95;;
27704;SDS011;15109;50.992;6.918;2022-08-19T09:35:03;13.48;;;8.00;;
27704;SDS011;15109;50.992;6.918;2022-08-19T09:38:24;13.30;;;7.97;;
27704;SDS011;15109;50.992;6.918;2022-08-19T09:41:45;10.77;;;7.25;;
27704;SDS011;15109;50.992;6.918;2022-08-19T09:45:06;14.48;;;6.60;;
27704;SDS011;15109;50.992;6.918;2022-08-19T09:48:27;15.18;;;7.32;;
27704;SDS011;15109;50.992;6.918;2022-08-19T09:51:49;19.15;;;7.40;;
27704;SDS011;15109;50.992;6.918;2022-08-19T09:55:12;9.75;;;6.25;;
27704;SDS011;15109;50.992;6.918;2022-08-19T09:58:34;12.90;;;7.03;;
27704;SDS011;15109;50.992;6.918;2022-08-19T10:01:58;12.30;;;7.00;;
27704;SDS011;15109;50.992;6.918;2022-08-19T10:05:19;9.88;;;6.50;;
27704;SDS011;15109;50.992;6.918;2022-08-19T10:08:59;9.27;;;5.85;;
27704;SDS011;15109;50.992;6.918;2022-08-19T10:12:20;7.95;;;4.68;;
27704;SDS011;15109;50.992;6.918;2022-08-19T10:15:42;9.43;;;5.25;;
27704;SDS011;15109;50.992;6.918;2022-08-19T10:19:04;10.50;;;5.50;;
27704;SDS011;15109;50.992;6.918;2022-08-19T10:22:25;6.90;;;4.53;;
27704;SDS011;15109;50.992;6.918;2022-08-19T10:25:47;8.68;;;5.90;;
27704;SDS011;15109;50.992;6.918;2022-08-19T10:29:09;11.43;;;4.43;;
27704;SDS011;15109;50.992;6.918;2022-08-19T10:32:30;7.53;;;4.55;;
27704;SDS011;15109;50.992;6.918;2022-08-19T10:35:59;7.00;;;4.70;;
27704;SDS011;15109;50.992;6.918;2022-08-19T10:39:21;7.15;;;4.35;;
27704;SDS011;15109;50.992;6.918;2022-08-19T10:42:42;7.40;;;4.85;;
27704;SDS011;15109;50.992;6.918;2022-08-19T10:46:08;9.32;;;5.55;;
27704;SDS011;15109;50.992;6.918;2022-08-19T10:49:31;5.95;;;4.07;;
27704;SDS011;15109;50.992;6.918;2022-08-19T10:52:52;8.98;;;5.50;;
27704;SDS011;15109;50.992;6.918;2022-08-19T10:56:13;7.72;;;5.07;;
27704;SDS011;15109;50.992;6.918;2022-08-19T10:59:53;7.25;;;4.82;;
27704;SDS011;15109;50.992;6.918;2022-08-19T11:03:14;8.52;;;5.43;;
27704;SDS011;15109;50.992;6.918;2022-08-19T11:06:35;6.88;;;4.65;;
27704;SDS011;15109;50.992;6.918;2022-08-19T11:09:58;6.53;;;4.43;;
27704;SDS011;15109;50.992;6.918;2022-08-19T11:13:19;8.48;;;5.32;;
27704;SDS011;15109;50.992;6.918;2022-08-19T11:16:40;8.52;;;5.05;;
27704;SDS011;15109;50.992;6.918;2022-08-19T11:20:02;7.15;;;4.70;;
27704;SDS011;15109;50.992;6.918;2022-08-19T11:23:26;8.05;;;5.00;;
27704;SDS011;15109;50.992;6.918;2022-08-19T11:26:47;6.95;;;3.88;;
27704;SDS011;15109;50.992;6.918;2022-08-19T11:30:11;6.43;;;4.47;;
27704;SDS011;15109;50.992;6.918;2022-08-19T11:33:34;6.10;;;4.25;;
27704;SDS011;15109;50.992;6.918;2022-08-19T11:36:55;9.88;;;4.05;;
27704;SDS011;15109;50.992;6.918;2022-08-19T11:40:20;6.95;;;3.88;;
27704;SDS011;15109;50.992;6.918;2022-08-19T11:43:42;5.32;;;3.17;;
27704;SDS011;15109;50.992;6.918;2022-08-19T11:47:09;7.68;;;3.75;;
27704;SDS011;15109;50.992;6.918;2022-08-19T11:50:30;7.45;;;3.97;;
27704;SDS011;15109;50.992;6.918;2022-08-19T11:53:52;5.97;;;4.00;;
27704;SDS011;15109;50.992;6.918;2022-08-19T11:57:14;5.82;;;3.63;;
27704;SDS011;15109;50.992;6.918;2022-08-19T12:00:38;7.30;;;3.97;;
27704;SDS011;15109;50.992;6.918;2022-08-19T12:04:00;5.68;;;3.53;;
27704;SDS011;15109;50.992;6.918;2022-08-19T12:07:21;5.18;;;3.53;;
27704;SDS011;15109;50.992;6.918;2022-08-19T12:10:43;6.72;;;3.22;;
27704;SDS011;15109;50.992;6.918;2022-08-19T12:14:06;6.57;;;3.85;;
27704;SDS011;15109;50.992;6.918;2022-08-19T12:17:30;3.50;;;2.53;;
27704;SDS011;15109;50.992;6.918;2022-08-19T12:20:52;9.15;;;3.33;;
27704;SDS011;15109;50.992;6.918;2022-08-19T12:24:15;4.90;;;2.70;;
27704;SDS011;15109;50.992;6.918;2022-08-19T12:27:36;17.58;;;3.08;;
27704;SDS011;15109;50.992;6.918;2022-08-19T12:30:57;4.38;;;2.45;;
27704;SDS011;15109;50.992;6.918;2022-08-19T12:34:19;2.83;;;1.90;;
27704;SDS011;15109;50.992;6.918;2022-08-19T12:37:40;6.97;;;2.47;;
27704;SDS011;15109;50.992;6.918;2022-08-19T12:41:05;6.80;;;3.40;;
27704;SDS011;15109;50.992;6.918;2022-08-19T12:44:27;8.43;;;3.22;;
27704;SDS011;15109;50.992;6.918;2022-08-19T12:47:49;4.78;;;3.13;;
27704;SDS011;15109;50.992;6.918;2022-08-19T12:51:15;4.70;;;3.08;;
27704;SDS011;15109;50.992;6.918;2022-08-19T12:54:39;5.95;;;3.75;;
27704;SDS011;15109;50.992;6.918;2022-08-19T12:58:00;10.18;;;3.33;;
27704;SDS011;15109;50.992;6.918;2022-08-19T13:01:22;5.65;;;3.10;;
27704;SDS011;15109;50.992;6.918;2022-08-19T13:04:43;4.60;;;2.80;;
27704;SDS011;15109;50.992;6.918;2022-08-19T13:08:04;4.85;;;2.70;;
27704;SDS011;15109;50.992;6.918;2022-08-19T13:11:25;5.97;;;3.15;;
27704;SDS011;15109;50.992;6.918;2022-08-19T13:14:46;4.38;;;2.72;;
27704;SDS011;15109;50.992;6.918;2022-08-19T13:18:11;4.38;;;2.58;;
27704;SDS011;15109;50.992;6.918;2022-08-19T13:21:33;5.07;;;2.65;;
27704;SDS011;15109;50.992;6.918;2022-08-19T13:24:54;3.63;;;2.17;;
27704;SDS011;15109;50.992;6.918;2022-08-19T13:28:15;4.30;;;2.45;;
27704;SDS011;15109;50.992;6.918;2022-08-19T13:31:38;4.40;;;2.78;;
27704;SDS011;15109;50.992;6.918;2022-08-19T13:35:20;2.70;;;1.80;;
27704;SDS011;15109;50.992;6.918;2022-08-19T13:38:41;4.05;;;1.83;;
27704;SDS011;15109;50.992;6.918;2022-08-19T13:42:02;2.65;;;1.83;;
27704;SDS011;15109;50.992;6.918;2022-08-19T13:45:25;5.63;;;2.25;;
27704;SDS011;15109;50.992;6.918;2022-08-19T13:48:48;3.25;;;1.85;;
27704;SDS011;15109;50.992;6.918;2022-08-19T13:52:09;2.67;;;1.77;;
27704;SDS011;15109;50.992;6.918;2022-08-19T13:55:30;3.50;;;2.05;;
27704;SDS011;15109;50.992;6.918;2022-08-19T13:58:51;3.90;;;2.22;;
27704;SDS011;15109;50.992;6.918;2022-08-19T14:02:13;3.08;;;2.08;;
27704;SDS011;15109;50.992;6.918;2022-08-19T14:05:35;4.45;;;2.17;;
27704;SDS011;15109;50.992;6.918;2022-08-19T14:08:56;2.80;;;1.88;;
27704;SDS011;15109;50.992;6.918;2022-08-19T14:12:18;3.78;;;2.22;;
27704;SDS011;15109;50.992;6.918;2022-08-19T14:15:41;2.83;;;1.73;;
27704;SDS011;15109;50.992;6.918;2022-08-19T14:19:02;3.05;;;1.85;;
27704;SDS011;15109;50.992;6.918;2022-08-19T14:22:23;2.65;;;1.73;;
27704;SDS011;15109;50.992;6.918;2022-08-19T14:25:44;2.20;;;1.38;;
27704;SDS011;15109;50.992;6.918;2022-08-19T14:29:07;3.13;;;1.80;;
27704;SDS011;15109;50.992;6.918;2022-08-19T14:32:28;3.45;;;2.08;;
27704;SDS011;15109;50.992;6.918;2022-08-19T14:35:49;2.13;;;1.58;;
27704;SDS011;15109;50.992;6.918;2022-08-19T14:39:10;2.80;;;1.70;;
27704;SDS011;15109;50.992;6.918;2022-08-19T14:42:31;1.27;;;1.02;;
27704;SDS011;15109;50.992;6.918;2022-08-19T14:45:52;2.15;;;1.55;;
27704;SDS011;15109;50.992;6.918;2022-08-19T14:49:13;2.38;;;1.48;;
27704;SDS011;15109;50.992;6.918;2022-08-19T14:52:34;1.73;;;1.10;;
27704;SDS011;15109;50.992;6.918;2022-08-19T14:55:55;1.67;;;1.20;;
27704;SDS011;15109;50.992;6.918;2022-08-19T14:59:16;2.83;;;1.77;;
27704;SDS011;15109;50.992;6.918;2022-08-19T15:02:38;2.38;;;1.40;;
27704;SDS011;15109;50.992;6.918;2022-08-19T15:06:00;4.78;;;1.65;;
27704;SDS011;15109;50.992;6.918;2022-08-19T15:09:22;1.25;;;0.98;;
27704;SDS011;15109;50.992;6.918;2022-08-19T15:12:44;1.10;;;0.98;;
27704;SDS011;15109;50.992;6.918;2022-08-19T15:16:06;1.42;;;0.98;;
27704;SDS011;15109;50.992;6.918;2022-08-19T15:19:28;2.78;;;1.30;;
27704;SDS011;15109;50.992;6.918;2022-08-19T15:22:51;1.05;;;0.88;;
27704;SDS011;15109;50.992;6.918;2022-08-19T15:26:12;2.70;;;1.13;;
27704;SDS011;15109;50.992;6.918;2022-08-19T15:29:33;2.55;;;1.25;;
27704;SDS011;15109;50.992;6.918;2022-08-19T15:32:55;1.25;;;0.80;;
27704;SDS011;15109;50.992;6.918;2022-08-19T15:36:19;1.63;;;1.10;;
27704;SDS011;15109;50.992;6.918;2022-08-19T15:39:40;1.52;;;1.00;;
27704;SDS011;15109;50.992;6.918;2022-08-19T15:43:01;0.85;;;0.85;;
27704;SDS011;15109;50.992;6.918;2022-08-19T15:46:23;2.67;;;0.95;;
27704;SDS011;15109;50.992;6.918;2022-08-19T15:49:47;3.47;;;1.42;;
27704;SDS011;15109;50.992;6.918;2022-08-19T15:53:09;1.38;;;1.13;;
27704;SDS011;15109;50.992;6.918;2022-08-19T15:56:31;0.90;;;0.80;;
27704;SDS011;15109;50.992;6.918;2022-08-19T16:00:10;2.00;;;1.08;;
27704;SDS011;15109;50.992;6.918;2022-08-19T16:03:51;1.90;;;1.00;;
27704;SDS011;15109;50.992;6.918;2022-08-19T16:07:31;4.75;;;0.85;;
27704;SDS011;15109;50.992;6.918;2022-08-19T16:10:53;0.77;;;0.70;;
27704;SDS011;15109;50.992;6.918;2022-08-19T16:14:15;1.80;;;0.90;;
27704;SDS011;15109;50.992;6.918;2022-08-19T16:17:38;4.45;;;1.33;;
27704;SDS011;15109;50.992;6.918;2022-08-19T16:20:59;2.00;;;0.88;;
27704;SDS011;15109;50.992;6.918;2022-08-19T16:24:21;1.13;;;0.80;;
27704;SDS011;15109;50.992;6.918;2022-08-19T16:27:44;0.60;;;0.57;;
27704;SDS011;15109;50.992;6.918;2022-08-19T16:31:05;2.38;;;1.15;;
27704;SDS011;15109;50.992;6.918;2022-08-19T16:34:26;1.00;;;0.77;;
27704;SDS011;15109;50.992;6.918;2022-08-19T16:37:47;0.85;;;0.75;;
27704;SDS011;15109;50.992;6.918;2022-08-19T16:41:09;1.23;;;0.75;;
27704;SDS011;15109;50.992;6.918;2022-08-19T16:44:31;1.20;;;0.95;;
27704;SDS011;15109;50.992;6.918;2022-08-19T16:47:52;0.82;;;0.70;;
27704;SDS011;15109;50.992;6.918;2022-08-19T16:51:16;2.53;;;1.20;;
27704;SDS011;15109;50.992;6.918;2022-08-19T16:54:38;1.95;;;1.00;;
27704;SDS011;15109;50.992;6.918;2022-08-19T16:57:59;0.70;;;0.60;;
27704;SDS011;15109;50.992;6.918;2022-08-19T17:01:24;1.05;;;0.73;;
27704;SDS011;15109;50.992;6.918;2022-08-19T17:04:49;0.40;;;0.40;;
27704;SDS011;15109;50.992;6.918;2022-08-19T17:08:12;1.10;;;0.70;;
27704;SDS011;15109;50.992;6.918;2022-08-19T17:11:34;1.63;;;0.90;;
27704;SDS011;15109;50.992;6.918;2022-08-19T17:14:57;1.88;;;0.82;;
27704;SDS011;15109;50.992;6.918;2022-08-19T17:18:20;1.63;;;1.02;;
27704;SDS011;15109;50.992;6.918;2022-08-19T17:21:47;0.85;;;0.60;;
27704;SDS011;15109;50.992;6.918;2022-08-19T17:25:11;0.82;;;0.60;;
27704;SDS011;15109;50.992;6.918;2022-08-19T17:28:32;1.05;;;0.77;;
27704;SDS011;15109;50.992;6.918;2022-08-19T17:31:58;0.90;;;0.65;;
27704;SDS011;15109;50.992;6.918;2022-08-19T17:35:19;0.93;;;0.70;;
27704;SDS011;15109;50.992;6.918;2022-08-19T17:38:40;0.70;;;0.60;;
27704;SDS011;15109;50.992;6.918;2022-08-19T17:42:02;2.78;;;1.38;;
27704;SDS011;15109;50.992;6.918;2022-08-19T17:45:23;0.95;;;0.60;;
27704;SDS011;15109;50.992;6.918;2022-08-19T17:48:48;1.05;;;0.88;;
27704;SDS011;15109;50.992;6.918;2022-08-19T17:55:32;1.45;;;0.80;;
27704;SDS011;15109;50.992;6.918;2022-08-19T17:58:54;0.77;;;0.68;;
27704;SDS011;15109;50.992;6.918;2022-08-19T18:02:15;1.23;;;0.77;;
27704;SDS011;15109;50.992;6.918;2022-08-19T18:05:40;1.38;;;0.85;;
27704;SDS011;15109;50.992;6.918;2022-08-19T18:09:05;0.95;;;0.60;;
27704;SDS011;15109;50.992;6.918;2022-08-19T18:12:27;0.82;;;0.52;;
27704;SDS011;15109;50.992;6.918;2022-08-19T18:15:50;1.83;;;0.90;;
27704;SDS011;15109;50.992;6.918;2022-08-19T18:19:11;1.35;;;0.95;;
27704;SDS011;15109;50.992;6.918;2022-08-19T18:22:36;0.65;;;0.45;;
27704;SDS011;15109;50.992;6.918;2022-08-19T18:25:59;1.98;;;0.85;;
27704;SDS011;15109;50.992;6.918;2022-08-19T18:29:28;0.45;;;0.35;;
27704;SDS011;15109;50.992;6.918;2022-08-19T18:32:53;2.00;;;1.02;;
27704;SDS011;15109;50.992;6.918;2022-08-19T18:36:14;1.33;;;0.82;;
27704;SDS011;15109;50.992;6.918;2022-08-19T18:39:35;0.98;;;0.80;;
27704;SDS011;15109;50.992;6.918;2022-08-19T18:43:15;2.10;;;1.10;;
27704;SDS011;15109;50.992;6.918;2022-08-19T18:46:42;0.70;;;0.63;;
27704;SDS011;15109;50.992;6.918;2022-08-19T18:50:22;0.98;;;0.50;;
27704;SDS011;15109;50.992;6.918;2022-08-19T18:53:44;1.50;;;1.00;;
27704;SDS011;15109;50.992;6.918;2022-08-19T18:57:07;0.68;;;0.68;;
27704;SDS011;15109;50.992;6.918;2022-08-19T19:00:29;1.52;;;0.95;;
27704;SDS011;15109;50.992;6.918;2022-08-19T19:03:54;0.77;;;0.70;;
27704;SDS011;15109;50.992;6.918;2022-08-19T19:07:20;0.85;;;0.75;;
27704;SDS011;15109;50.992;6.918;2022-08-19T19:10:41;1.42;;;0.73;;
27704;SDS011;15109;50.992;6.918;2022-08-19T19:14:04;1.17;;;0.70;;
27704;SDS011;15109;50.992;6.918;2022-08-19T19:17:30;5.72;;;0.90;;
27704;SDS011;15109;50.992;6.918;2022-08-19T19:20:52;1.98;;;1.23;;
27704;SDS011;15109;50.992;6.918;2022-08-19T19:24:17;0.95;;;0.65;;
27704;SDS011;15109;50.992;6.918;2022-08-19T19:27:45;2.50;;;1.35;;
27704;SDS011;15109;50.992;6.918;2022-08-19T19:31:22;0.65;;;0.40;;
27704;SDS011;15109;50.992;6.918;2022-08-19T19:34:46;0.68;;;0.47;;
27704;SDS011;15109;50.992;6.918;2022-08-19T19:38:10;1.20;;;0.77;;
27704;SDS011;15109;50.992;6.918;2022-08-19T19:41:32;1.10;;;0.63;;
27704;SDS011;15109;50.992;6.918;2022-08-19T19:44:55;1.52;;;0.98;;
27704;SDS011;15109;50.992;6.918;2022-08-19T19:48:16;0.85;;;0.60;;
27704;SDS011;15109;50.992;6.918;2022-08-19T19:51:38;1.08;;;0.77;;
27704;SDS011;15109;50.992;6.918;2022-08-19T19:55:02;0.63;;;0.60;;
27704;SDS011;15109;50.992;6.918;2022-08-19T19:58:30;4.47;;;1.00;;
27704;SDS011;15109;50.992;6.918;2022-08-19T20:01:56;1.23;;;0.55;;
27704;SDS011;15109;50.992;6.918;2022-08-19T20:05:20;1.00;;;0.68;;
27704;SDS011;15109;50.992;6.918;2022-08-19T20:08:42;0.68;;;0.65;;
27704;SDS011;15109;50.992;6.918;2022-08-19T20:12:25;0.52;;;0.47;;
27704;SDS011;15109;50.992;6.918;2022-08-19T20:15:48;0.85;;;0.60;;
27704;SDS011;15109;50.992;6.918;2022-08-19T20:19:12;1.13;;;0.77;;
27704;SDS011;15109;50.992;6.918;2022-08-19T20:22:40;1.05;;;0.60;;